Time;durP1;ratioP1;P1;durP2;ratioP2;P2;SDS_P1;SDS_P2;PMS_P1;PMS_P2;Temp;Humidity;BMP_temperature;BMP_pressure;BME280_temperature;BME280_humidity;BME280_pressure;Samples;Min_cycle;Max_cycle;Signal;HPM_P1;HPM_P2
2020/12/08 00:00:33;;;;;;;67.17;28.53;;;;;;;;;;10374057;28;20240;-66
2020/12/08 00:05:35;;;;;;;63.13;28.53;;;;;;;;;;10368585;28;20722;-65
2020/12/08 00:10:37;;;;;;;74.97;32.43;;;;;;;;;;10379194;28;20712;-65
2020/12/08 00:15:39;;;;;;;73.37;30.63;;;;;;;;;;10377788;27;20227;-66
2020/12/08 00:20:41;;;;;;;74.83;30.57;;;;;;;;;;10377072;28;20251;-65
2020/12/08 00:25:44;;;;;;;59.40;27.10;;;;;;;;;;10372479;28;20216;-66
2020/12/08 00:30:47;;;;;;;65.87;27.23;;;;;;;;;;10370389;28;20889;-66
2020/12/08 00:35:49;;;;;;;67.50;28.47;;;;;;;;;;10383502;28;20772;-66
2020/12/08 00:40:52;;;;;;;72.30;29.50;;;;;;;;;;10372655;28;20223;-66
2020/12/08 00:45:53;;;;;;;68.83;30.50;;;;;;;;;;10371339;27;20243;-66
2020/12/08 00:50:55;;;;;;;70.13;30.00;;;;;;;;;;10375806;28;20215;-65
2020/12/08 00:55:58;;;;;;;75.57;31.80;;;;;;;;;;10377249;28;20208;-65
2020/12/08 01:01:00;;;;;;;70.87;30.97;;;;;;;;;;10376446;28;20288;-66
2020/12/08 01:06:03;;;;;;;70.40;31.40;;;;;;;;;;10374378;28;20232;-65
2020/12/08 01:11:06;;;;;;;75.13;31.37;;;;;;;;;;10374619;27;20220;-66
2020/12/08 01:16:07;;;;;;;78.33;32.40;;;;;;;;;;10375012;28;20234;-66
2020/12/08 01:21:09;;;;;;;74.20;32.93;;;;;;;;;;10370015;27;20223;-65
2020/12/08 01:26:19;;;;;;;83.93;34.17;;;;;;;;;;10390468;27;20899;-65
2020/12/08 01:31:21;;;;;;;75.53;31.37;;;;;;;;;;10372954;28;20212;-65
2020/12/08 01:36:22;;;;;;;85.03;33.43;;;;;;;;;;10376732;28;20240;-65
2020/12/08 01:41:25;;;;;;;83.10;33.73;;;;;;;;;;10376327;27;20220;-65
2020/12/08 01:46:27;;;;;;;82.63;33.07;;;;;;;;;;10376635;28;20344;-66
2020/12/08 01:51:29;;;;;;;80.77;33.50;;;;;;;;;;10373034;28;20996;-65
2020/12/08 01:56:32;;;;;;;83.77;31.97;;;;;;;;;;10374419;28;20247;-65
2020/12/08 02:01:33;;;;;;;82.17;34.10;;;;;;;;;;10372337;28;20216;-67
2020/12/08 02:06:35;;;;;;;85.90;33.70;;;;;;;;;;10374278;28;20243;-65
2020/12/08 02:11:38;;;;;;;89.53;34.37;;;;;;;;;;10371853;28;20927;-65
2020/12/08 02:16:39;;;;;;;81.97;32.30;;;;;;;;;;10374771;28;20231;-65
2020/12/08 02:21:42;;;;;;;85.37;33.80;;;;;;;;;;10368250;28;20216;-65
2020/12/08 02:26:44;;;;;;;83.10;32.97;;;;;;;;;;10379439;27;20228;-65
2020/12/08 02:31:47;;;;;;;80.97;32.13;;;;;;;;;;10371831;27;20687;-65
2020/12/08 02:36:52;;;;;;;76.80;32.90;;;;;;;;;;10369441;28;20256;-64
2020/12/08 02:41:54;;;;;;;81.67;32.67;;;;;;;;;;10371204;28;20571;-64
2020/12/08 02:46:56;;;;;;;78.77;31.23;;;;;;;;;;10368715;28;20221;-65
2020/12/08 02:51:58;;;;;;;82.43;32.13;;;;;;;;;;10363891;28;20205;-65
2020/12/08 02:57:00;;;;;;;82.77;30.37;;;;;;;;;;10378389;28;20247;-65
2020/12/08 03:02:02;;;;;;;76.37;29.53;;;;;;;;;;10369147;28;20247;-65
2020/12/08 03:07:05;;;;;;;75.57;29.87;;;;;;;;;;10382531;28;20733;-65
2020/12/08 03:12:07;;;;;;;69.73;28.93;;;;;;;;;;10373945;28;20209;-65
2020/12/08 03:17:09;;;;;;;72.83;29.70;;;;;;;;;;10378655;28;20273;-66
2020/12/08 03:22:11;;;;;;;69.37;29.33;;;;;;;;;;10393480;28;20595;-65
2020/12/08 03:27:13;;;;;;;73.97;28.40;;;;;;;;;;10375207;28;20221;-66
2020/12/08 03:32:15;;;;;;;73.50;29.30;;;;;;;;;;10377436;28;20209;-65
2020/12/08 03:37:18;;;;;;;69.47;27.40;;;;;;;;;;10370465;28;20240;-65
2020/12/08 03:42:20;;;;;;;68.87;26.73;;;;;;;;;;10371330;28;20746;-66
2020/12/08 03:47:22;;;;;;;72.70;26.57;;;;;;;;;;10366826;28;20208;-66
2020/12/08 03:52:25;;;;;;;57.90;25.70;;;;;;;;;;10370688;28;20217;-65
2020/12/08 03:57:26;;;;;;;62.97;25.07;;;;;;;;;;10371073;28;20245;-67
2020/12/08 04:02:30;;;;;;;57.13;24.10;;;;;;;;;;10369703;28;20228;-66
2020/12/08 04:07:34;;;;;;;54.30;23.33;;;;;;;;;;10373610;27;20209;-65
2020/12/08 04:12:36;;;;;;;51.50;21.60;;;;;;;;;;10382771;27;20216;-65
2020/12/08 04:17:37;;;;;;;55.70;22.67;;;;;;;;;;10378227;28;20675;-65
2020/12/08 04:22:40;;;;;;;53.63;21.80;;;;;;;;;;10379232;28;20224;-64
2020/12/08 04:27:42;;;;;;;52.90;21.40;;;;;;;;;;10380471;27;20220;-65
2020/12/08 04:32:44;;;;;;;51.53;21.53;;;;;;;;;;10381766;27;20220;-66
2020/12/08 04:37:46;;;;;;;44.10;20.23;;;;;;;;;;10372175;27;20244;-66
2020/12/08 04:42:49;;;;;;;51.50;21.07;;;;;;;;;;10376152;28;20227;-67
2020/12/08 04:47:51;;;;;;;53.17;21.80;;;;;;;;;;10374065;28;20219;-66
2020/12/08 04:52:54;;;;;;;48.13;20.73;;;;;;;;;;10378193;28;20753;-66
2020/12/08 04:57:55;;;;;;;47.83;19.87;;;;;;;;;;10379927;27;20248;-65
2020/12/08 05:02:58;;;;;;;46.73;20.07;;;;;;;;;;10372908;28;20238;-65
2020/12/08 05:08:07;;;;;;;47.00;19.50;;;;;;;;;;10382177;27;20864;-65
2020/12/08 05:13:15;;;;;;;48.70;20.73;;;;;;;;;;10382353;27;20217;-66
2020/12/08 05:18:17;;;;;;;53.67;21.53;;;;;;;;;;10375060;27;20244;-65
2020/12/08 05:23:19;;;;;;;46.10;19.60;;;;;;;;;;10378030;27;20738;-65
2020/12/08 05:28:21;;;;;;;38.93;18.57;;;;;;;;;;10378555;27;20212;-66
2020/12/08 05:33:24;;;;;;;45.70;20.10;;;;;;;;;;10379569;28;20212;-65
2020/12/08 05:38:28;;;;;;;48.77;18.87;;;;;;;;;;10383640;27;20256;-65
2020/12/08 05:43:35;;;;;;;42.97;19.00;;;;;;;;;;10379984;27;20205;-65
2020/12/08 05:48:37;;;;;;;41.10;18.77;;;;;;;;;;10380058;27;20225;-65
2020/12/08 05:53:41;;;;;;;39.73;18.60;;;;;;;;;;10381082;27;20217;-66
2020/12/08 05:58:43;;;;;;;46.57;19.17;;;;;;;;;;10378630;27;20247;-65
2020/12/08 06:03:53;;;;;;;44.13;19.30;;;;;;;;;;10380438;27;20263;-65
2020/12/08 06:08:55;;;;;;;44.17;19.37;;;;;;;;;;10379173;27;20307;-65
2020/12/08 06:13:57;;;;;;;43.13;18.33;;;;;;;;;;10382951;27;20208;-65
2020/12/08 06:18:59;;;;;;;43.53;17.77;;;;;;;;;;10381820;27;20358;-64
2020/12/08 06:24:03;;;;;;;43.60;19.03;;;;;;;;;;10381395;27;20662;-66
2020/12/08 06:29:08;;;;;;;43.13;17.93;;;;;;;;;;10382885;27;20209;-65
2020/12/08 06:34:10;;;;;;;41.87;19.00;;;;;;;;;;10369799;28;20215;-65
2020/12/08 06:39:13;;;;;;;45.53;17.77;;;;;;;;;;10373641;28;20267;-65
2020/12/08 06:44:17;;;;;;;44.43;17.50;;;;;;;;;;10365221;28;21580;-65
2020/12/08 06:49:19;;;;;;;43.30;18.53;;;;;;;;;;10377503;28;20667;-65
2020/12/08 06:54:22;;;;;;;44.17;18.07;;;;;;;;;;10371533;28;20633;-65
2020/12/08 06:59:25;;;;;;;39.50;18.17;;;;;;;;;;10372993;28;20968;-64
2020/12/08 07:04:27;;;;;;;45.20;19.90;;;;;;;;;;10370426;28;20239;-64
2020/12/08 07:09:32;;;;;;;44.90;19.07;;;;;;;;;;10374688;28;20312;-64
2020/12/08 07:14:36;;;;;;;50.93;21.20;;;;;;;;;;10367995;28;20217;-66
2020/12/08 07:19:38;;;;;;;43.13;19.27;;;;;;;;;;10369775;28;20254;-64
2020/12/08 07:24:44;;;;;;;41.63;19.47;;;;;;;;;;10370151;28;20212;-65
2020/12/08 07:29:46;;;;;;;48.37;20.33;;;;;;;;;;10367331;28;20216;-65
2020/12/08 07:34:48;;;;;;;46.30;20.07;;;;;;;;;;10371453;28;20675;-64
2020/12/08 07:39:52;;;;;;;39.43;18.87;;;;;;;;;;10376060;27;20237;-64
2020/12/08 07:44:55;;;;;;;43.03;18.73;;;;;;;;;;10368388;28;20209;-64
2020/12/08 07:49:57;;;;;;;43.93;18.60;;;;;;;;;;10393355;27;20227;-64
2020/12/08 07:55:00;;;;;;;43.73;19.37;;;;;;;;;;10374782;28;20576;-64
2020/12/08 08:00:01;;;;;;;38.90;18.40;;;;;;;;;;10382396;28;20260;-64
2020/12/08 08:05:03;;;;;;;40.83;18.20;;;;;;;;;;10378951;27;20749;-64
2020/12/08 08:10:06;;;;;;;43.63;19.47;;;;;;;;;;10380431;28;20301;-65
2020/12/08 08:15:08;;;;;;;40.63;18.63;;;;;;;;;;10375048;28;20219;-63
2020/12/08 08:20:10;;;;;;;41.30;18.63;;;;;;;;;;10384138;27;20240;-65
2020/12/08 08:25:13;;;;;;;40.40;18.90;;;;;;;;;;10373503;28;20540;-64
2020/12/08 08:30:15;;;;;;;42.23;19.20;;;;;;;;;;10389545;27;20619;-65
2020/12/08 08:35:16;;;;;;;44.60;20.20;;;;;;;;;;10377011;27;20208;-65
2020/12/08 08:40:19;;;;;;;40.60;18.90;;;;;;;;;;10369758;28;20236;-64
2020/12/08 08:45:21;;;;;;;43.47;19.47;;;;;;;;;;10376961;28;20220;-64
2020/12/08 08:50:23;;;;;;;41.07;18.60;;;;;;;;;;10375254;28;20206;-65
2020/12/08 08:55:26;;;;;;;48.50;19.60;;;;;;;;;;10383311;28;20220;-66
2020/12/08 09:00:37;;;;;;;45.10;20.77;;;;;;;;;;10376625;28;20271;-65
2020/12/08 09:05:38;;;;;;;42.23;18.83;;;;;;;;;;10378386;28;20236;-65
2020/12/08 09:10:42;;;;;;;41.77;20.23;;;;;;;;;;10376549;28;20212;-64
2020/12/08 09:15:44;;;;;;;42.70;19.90;;;;;;;;;;10379708;27;20213;-64
2020/12/08 09:20:46;;;;;;;39.07;20.40;;;;;;;;;;10373333;28;20614;-65
2020/12/08 09:25:49;;;;;;;44.40;19.97;;;;;;;;;;10374897;28;20212;-64
2020/12/08 09:30:51;;;;;;;44.87;21.03;;;;;;;;;;10374320;27;20224;-65
2020/12/08 09:35:53;;;;;;;42.40;19.80;;;;;;;;;;10372697;28;20630;-65
2020/12/08 09:40:55;;;;;;;41.60;20.53;;;;;;;;;;10369972;28;20254;-65
2020/12/08 09:46:00;;;;;;;45.03;20.90;;;;;;;;;;10375481;28;20213;-64
2020/12/08 09:51:01;;;;;;;43.60;21.27;;;;;;;;;;10373977;28;20239;-64
2020/12/08 09:56:04;;;;;;;45.30;21.67;;;;;;;;;;10385473;27;20224;-64
2020/12/08 10:01:06;;;;;;;45.60;21.33;;;;;;;;;;10375258;28;20271;-64
2020/12/08 10:06:08;;;;;;;54.97;22.30;;;;;;;;;;10372118;28;20733;-65
2020/12/08 10:11:13;;;;;;;42.27;21.17;;;;;;;;;;10374685;27;20212;-66
2020/12/08 10:16:25;;;;;;;48.00;22.57;;;;;;;;;;10376639;28;20216;-66
2020/12/08 10:21:27;;;;;;;44.17;21.37;;;;;;;;;;10372765;27;20263;-65
2020/12/08 10:26:30;;;;;;;40.87;21.87;;;;;;;;;;10375643;28;20220;-65
2020/12/08 10:31:32;;;;;;;44.13;21.67;;;;;;;;;;10369957;28;20222;-65
2020/12/08 10:36:33;;;;;;;48.03;22.70;;;;;;;;;;10372093;27;20220;-65
2020/12/08 10:41:36;;;;;;;48.50;23.80;;;;;;;;;;10370197;28;20262;-64
2020/12/08 10:46:38;;;;;;;46.23;22.83;;;;;;;;;;10370048;28;20244;-64
2020/12/08 10:51:39;;;;;;;46.40;23.10;;;;;;;;;;10368166;28;20212;-64
2020/12/08 10:56:42;;;;;;;44.50;24.13;;;;;;;;;;10372103;28;20213;-64
2020/12/08 11:01:44;;;;;;;48.50;24.07;;;;;;;;;;10373099;28;20236;-65
2020/12/08 11:06:46;;;;;;;44.53;22.70;;;;;;;;;;10368135;28;20285;-65
2020/12/08 11:11:49;;;;;;;43.27;23.27;;;;;;;;;;10375159;28;20216;-65
2020/12/08 11:16:51;;;;;;;43.77;23.60;;;;;;;;;;10372175;28;20219;-64
2020/12/08 11:22:08;;;;;;;43.30;22.70;;;;;;;;;;10381744;27;20236;-66
2020/12/08 11:27:14;;;;;;;46.03;21.93;;;;;;;;;;10376416;28;20636;-64
2020/12/08 11:32:16;;;;;;;44.13;23.03;;;;;;;;;;10390380;27;20243;-65
2020/12/08 11:37:18;;;;;;;43.13;21.70;;;;;;;;;;10375137;28;20227;-66
2020/12/08 11:42:21;;;;;;;45.07;22.77;;;;;;;;;;10374339;28;20360;-65
2020/12/08 11:47:23;;;;;;;39.37;20.77;;;;;;;;;;10371524;28;20219;-65
2020/12/08 11:52:25;;;;;;;42.90;20.80;;;;;;;;;;10382144;28;20212;-65
2020/12/08 11:57:28;;;;;;;44.27;20.93;;;;;;;;;;10382047;27;20220;-65
2020/12/08 12:02:30;;;;;;;50.43;20.80;;;;;;;;;;10372943;28;20243;-64
2020/12/08 12:07:31;;;;;;;38.70;18.17;;;;;;;;;;10370661;28;20216;-65
2020/12/08 12:12:34;;;;;;;38.30;18.37;;;;;;;;;;10379419;28;20303;-65
2020/12/08 12:17:36;;;;;;;32.50;17.93;;;;;;;;;;10380109;27;20212;-65
2020/12/08 12:22:38;;;;;;;34.80;18.30;;;;;;;;;;10378959;28;20220;-65
2020/12/08 12:27:42;;;;;;;32.03;17.67;;;;;;;;;;10375327;28;20212;-65
2020/12/08 12:32:48;;;;;;;34.40;18.20;;;;;;;;;;10384802;27;20235;-65
2020/12/08 12:37:50;;;;;;;36.13;17.33;;;;;;;;;;10377977;28;20236;-65
2020/12/08 12:42:53;;;;;;;32.47;17.33;;;;;;;;;;10378674;28;20216;-64
2020/12/08 12:47:55;;;;;;;36.60;17.93;;;;;;;;;;10375299;28;20309;-65
2020/12/08 12:52:57;;;;;;;32.60;17.13;;;;;;;;;;10367253;28;20212;-65
2020/12/08 12:58:00;;;;;;;33.93;18.47;;;;;;;;;;10370427;27;20247;-65
2020/12/08 13:03:03;;;;;;;35.40;17.47;;;;;;;;;;10375104;27;20254;-65
2020/12/08 13:08:05;;;;;;;34.10;17.83;;;;;;;;;;10384434;27;20221;-65
2020/12/08 13:13:07;;;;;;;38.93;19.03;;;;;;;;;;10376651;27;20224;-65
2020/12/08 13:18:09;;;;;;;33.57;17.47;;;;;;;;;;10394498;27;20228;-65
2020/12/08 13:23:11;;;;;;;40.60;19.97;;;;;;;;;;10370358;28;20212;-65
2020/12/08 13:28:14;;;;;;;40.77;20.73;;;;;;;;;;10376338;28;20216;-65
2020/12/08 13:33:16;;;;;;;35.63;18.00;;;;;;;;;;10370217;28;20216;-66
2020/12/08 13:38:17;;;;;;;37.83;19.57;;;;;;;;;;10379608;27;20240;-65
2020/12/08 13:43:20;;;;;;;38.73;20.43;;;;;;;;;;10373521;27;20224;-65
2020/12/08 13:48:22;;;;;;;38.40;19.23;;;;;;;;;;10376977;28;20228;-64
2020/12/08 13:53:24;;;;;;;40.33;19.10;;;;;;;;;;10370049;28;20205;-64
2020/12/08 13:58:27;;;;;;;38.80;19.57;;;;;;;;;;10397845;27;20354;-65
2020/12/08 14:03:29;;;;;;;37.50;18.73;;;;;;;;;;10367082;28;20240;-64
2020/12/08 14:08:31;;;;;;;39.83;20.23;;;;;;;;;;10382959;27;20213;-65
2020/12/08 14:13:35;;;;;;;39.07;19.93;;;;;;;;;;10372730;28;20240;-66
2020/12/08 14:18:38;;;;;;;44.00;20.77;;;;;;;;;;10372903;28;20255;-65
2020/12/08 14:23:40;;;;;;;37.07;19.77;;;;;;;;;;10383646;27;20216;-65
2020/12/08 14:28:43;;;;;;;36.63;18.57;;;;;;;;;;10375336;28;20658;-65
2020/12/08 14:33:45;;;;;;;41.20;19.83;;;;;;;;;;10375244;28;20220;-66
2020/12/08 14:38:47;;;;;;;37.23;18.43;;;;;;;;;;10381211;28;20714;-65
2020/12/08 14:43:50;;;;;;;42.13;19.87;;;;;;;;;;10387362;27;20217;-65
2020/12/08 14:48:52;;;;;;;37.20;19.17;;;;;;;;;;10370311;28;20222;-65
2020/12/08 14:53:54;;;;;;;36.73;19.30;;;;;;;;;;10373772;28;20220;-65
2020/12/08 14:58:58;;;;;;;42.23;20.53;;;;;;;;;;10367735;28;20236;-66
2020/12/08 15:03:59;;;;;;;38.93;19.87;;;;;;;;;;10374139;28;20234;-64
2020/12/08 15:09:01;;;;;;;38.23;19.80;;;;;;;;;;10373294;28;20589;-64
2020/12/08 15:14:04;;;;;;;40.53;20.20;;;;;;;;;;10369937;28;20223;-65
2020/12/08 15:19:06;;;;;;;40.83;19.37;;;;;;;;;;10366542;28;20250;-65
2020/12/08 15:24:09;;;;;;;42.80;20.43;;;;;;;;;;10373220;28;20220;-64
2020/12/08 15:29:12;;;;;;;42.63;19.43;;;;;;;;;;10367782;28;20719;-65
2020/12/08 15:34:14;;;;;;;43.80;21.27;;;;;;;;;;10373267;28;20658;-65
2020/12/08 15:39:15;;;;;;;47.37;21.73;;;;;;;;;;10369413;28;20661;-64
2020/12/08 15:44:18;;;;;;;43.83;21.03;;;;;;;;;;10369585;28;20208;-65
2020/12/08 15:49:20;;;;;;;44.83;21.63;;;;;;;;;;10366913;28;20212;-64
2020/12/08 15:54:22;;;;;;;46.40;22.70;;;;;;;;;;10372889;28;20221;-65
2020/12/08 15:59:24;;;;;;;49.17;22.33;;;;;;;;;;10370703;28;20707;-65
2020/12/08 16:04:26;;;;;;;47.60;22.67;;;;;;;;;;10403017;27;20241;-65
2020/12/08 16:09:28;;;;;;;45.57;21.87;;;;;;;;;;10373806;27;20213;-65
2020/12/08 16:14:31;;;;;;;50.77;23.10;;;;;;;;;;10372664;28;20633;-66
2020/12/08 16:19:33;;;;;;;47.10;22.13;;;;;;;;;;10375324;27;20236;-64
2020/12/08 16:24:34;;;;;;;48.40;22.63;;;;;;;;;;10383694;27;20206;-65
2020/12/08 16:29:37;;;;;;;50.80;22.63;;;;;;;;;;10379396;27;20227;-66
2020/12/08 16:34:40;;;;;;;45.90;22.13;;;;;;;;;;10389669;27;20221;-65
2020/12/08 16:39:42;;;;;;;52.73;23.07;;;;;;;;;;10377085;27;20233;-65
2020/12/08 16:44:45;;;;;;;52.83;25.47;;;;;;;;;;10374481;28;20217;-66
2020/12/08 16:49:48;;;;;;;47.77;23.13;;;;;;;;;;10375716;28;20211;-64
2020/12/08 16:54:51;;;;;;;47.73;23.33;;;;;;;;;;10379144;28;20216;-64
2020/12/08 16:59:54;;;;;;;52.40;24.43;;;;;;;;;;10376138;27;20236;-65
2020/12/08 17:04:56;;;;;;;48.30;23.67;;;;;;;;;;10368369;28;20241;-65
2020/12/08 17:09:58;;;;;;;52.03;24.63;;;;;;;;;;10376215;28;20223;-66
2020/12/08 17:15:00;;;;;;;54.20;25.07;;;;;;;;;;10376266;27;20224;-67
2020/12/08 17:20:03;;;;;;;55.53;26.90;;;;;;;;;;10373306;28;20248;-66
2020/12/08 17:25:04;;;;;;;65.50;29.20;;;;;;;;;;10372991;28;20232;-66
2020/12/08 17:30:08;;;;;;;62.67;29.00;;;;;;;;;;10373526;27;20239;-66
2020/12/08 17:35:10;;;;;;;58.97;27.10;;;;;;;;;;10372269;28;20930;-65
2020/12/08 17:40:12;;;;;;;57.97;27.70;;;;;;;;;;10376927;27;20689;-65
2020/12/08 17:45:15;;;;;;;57.97;28.03;;;;;;;;;;10367134;27;20220;-66
2020/12/08 17:50:17;;;;;;;60.60;29.10;;;;;;;;;;10373746;27;20223;-66
2020/12/08 17:55:19;;;;;;;59.83;27.47;;;;;;;;;;10373591;27;20223;-66
2020/12/08 18:00:22;;;;;;;55.47;27.70;;;;;;;;;;10368604;27;20232;-66
2020/12/08 18:05:23;;;;;;;54.17;26.90;;;;;;;;;;10368008;27;20239;-66
2020/12/08 18:10:25;;;;;;;63.70;28.77;;;;;;;;;;10371232;28;20702;-66
2020/12/08 18:15:28;;;;;;;69.57;29.30;;;;;;;;;;10364272;28;20212;-66
2020/12/08 18:20:30;;;;;;;63.07;31.27;;;;;;;;;;10362310;28;20239;-65
2020/12/08 18:25:32;;;;;;;66.20;31.90;;;;;;;;;;10367083;28;20205;-65
2020/12/08 18:30:36;;;;;;;77.33;34.27;;;;;;;;;;10368440;28;20212;-65
2020/12/08 18:35:38;;;;;;;89.90;37.47;;;;;;;;;;10363604;27;20236;-68
2020/12/08 18:40:40;;;;;;;91.97;38.63;;;;;;;;;;10369182;28;20244;-65
2020/12/08 18:45:43;;;;;;;73.03;33.40;;;;;;;;;;10363322;28;20213;-66
2020/12/08 18:50:45;;;;;;;69.73;30.37;;;;;;;;;;10372231;28;20216;-66
2020/12/08 18:55:47;;;;;;;63.40;30.60;;;;;;;;;;10364960;28;20205;-66
2020/12/08 19:00:50;;;;;;;67.30;30.63;;;;;;;;;;10370698;27;20240;-65
2020/12/08 19:05:51;;;;;;;64.40;30.50;;;;;;;;;;10370105;28;20263;-65
2020/12/08 19:10:53;;;;;;;63.57;29.90;;;;;;;;;;10367138;28;20823;-66
2020/12/08 19:15:56;;;;;;;70.53;32.00;;;;;;;;;;10371212;28;20204;-66
2020/12/08 19:20:58;;;;;;;67.23;31.00;;;;;;;;;;10371976;28;20630;-66
2020/12/08 19:26:00;;;;;;;67.63;30.27;;;;;;;;;;10364806;28;20219;-65
2020/12/08 19:31:02;;;;;;;68.87;31.27;;;;;;;;;;10366211;28;20702;-65
2020/12/08 19:36:04;;;;;;;68.67;31.70;;;;;;;;;;10365297;27;20235;-66
2020/12/08 19:41:06;;;;;;;60.43;30.10;;;;;;;;;;10386198;27;20240;-67
2020/12/08 19:46:09;;;;;;;62.80;29.53;;;;;;;;;;10380727;27;20224;-66
2020/12/08 19:51:11;;;;;;;77.40;32.60;;;;;;;;;;10377786;27;20305;-65
2020/12/08 19:56:13;;;;;;;64.83;31.97;;;;;;;;;;10387342;27;20213;-66
2020/12/08 20:01:19;;;;;;;71.00;30.53;;;;;;;;;;10381479;27;20678;-66
2020/12/08 20:06:23;;;;;;;64.90;30.50;;;;;;;;;;10382892;27;20262;-66
2020/12/08 20:11:25;;;;;;;72.93;32.50;;;;;;;;;;10374216;27;20234;-66
2020/12/08 20:16:27;;;;;;;67.67;30.43;;;;;;;;;;10373362;28;20232;-66
2020/12/08 20:21:29;;;;;;;71.77;32.03;;;;;;;;;;10377522;27;20232;-65
2020/12/08 20:26:31;;;;;;;85.13;34.13;;;;;;;;;;10381952;27;20208;-67
2020/12/08 20:31:38;;;;;;;70.53;33.23;;;;;;;;;;10373514;27;20213;-67
2020/12/08 20:36:40;;;;;;;68.20;32.47;;;;;;;;;;10369288;27;20216;-65
2020/12/08 20:41:43;;;;;;;73.43;35.40;;;;;;;;;;10371583;27;20232;-67
2020/12/08 20:46:46;;;;;;;73.67;33.97;;;;;;;;;;10371696;28;20217;-67
2020/12/08 20:51:50;;;;;;;74.40;33.50;;;;;;;;;;10370354;28;20209;-66
2020/12/08 20:56:52;;;;;;;81.10;34.03;;;;;;;;;;10371633;27;20721;-66
2020/12/08 21:01:55;;;;;;;81.10;35.10;;;;;;;;;;10373497;28;21148;-66
2020/12/08 21:06:57;;;;;;;76.00;34.97;;;;;;;;;;10371962;28;20271;-66
2020/12/08 21:11:59;;;;;;;81.73;34.87;;;;;;;;;;10371708;28;20213;-65
2020/12/08 21:17:02;;;;;;;70.97;34.90;;;;;;;;;;10374170;27;20213;-65
2020/12/08 21:22:04;;;;;;;67.53;33.10;;;;;;;;;;10371346;27;20706;-65
2020/12/08 21:27:06;;;;;;;71.13;33.90;;;;;;;;;;10372920;28;20205;-66
2020/12/08 21:32:08;;;;;;;70.73;32.23;;;;;;;;;;10375421;27;20239;-66
2020/12/08 21:37:10;;;;;;;69.40;32.70;;;;;;;;;;10368988;28;20213;-65
2020/12/08 21:42:12;;;;;;;70.87;33.40;;;;;;;;;;10371656;27;20232;-66
2020/12/08 21:47:15;;;;;;;70.13;33.63;;;;;;;;;;10365290;28;20658;-66
2020/12/08 21:52:16;;;;;;;73.03;32.77;;;;;;;;;;10368565;28;20753;-66
2020/12/08 21:57:18;;;;;;;67.43;32.53;;;;;;;;;;10364792;28;20275;-66
2020/12/08 22:02:21;;;;;;;66.50;31.73;;;;;;;;;;10366914;28;20243;-65
2020/12/08 22:07:23;;;;;;;64.63;31.43;;;;;;;;;;10362121;28;20209;-66
2020/12/08 22:12:25;;;;;;;65.23;29.47;;;;;;;;;;10367291;28;20217;-65
2020/12/08 22:17:29;;;;;;;68.17;30.67;;;;;;;;;;10370644;27;20216;-66
2020/12/08 22:22:32;;;;;;;70.47;30.83;;;;;;;;;;10368571;27;20243;-66
2020/12/08 22:27:35;;;;;;;66.30;29.73;;;;;;;;;;10366502;28;20204;-66
2020/12/08 22:32:41;;;;;;;66.33;30.10;;;;;;;;;;10364908;28;20231;-66
2020/12/08 22:37:43;;;;;;;65.47;29.27;;;;;;;;;;10375358;28;20213;-67
2020/12/08 22:42:45;;;;;;;64.53;28.63;;;;;;;;;;10372502;28;20231;-66
2020/12/08 22:47:48;;;;;;;66.20;31.03;;;;;;;;;;10364905;28;20216;-65
2020/12/08 22:52:50;;;;;;;66.23;31.07;;;;;;;;;;10371111;27;20239;-65
2020/12/08 22:57:53;;;;;;;70.20;30.70;;;;;;;;;;10371729;28;20325;-65
2020/12/08 23:02:56;;;;;;;59.50;28.73;;;;;;;;;;10367040;28;20290;-66
2020/12/08 23:07:57;;;;;;;59.47;27.97;;;;;;;;;;10370968;28;20657;-66
2020/12/08 23:12:59;;;;;;;59.83;28.40;;;;;;;;;;10387950;27;20212;-66
2020/12/08 23:18:02;;;;;;;64.13;29.20;;;;;;;;;;10385954;27;20216;-66
2020/12/08 23:23:04;;;;;;;58.20;26.07;;;;;;;;;;10387011;27;20232;-65
2020/12/08 23:28:06;;;;;;;59.33;28.97;;;;;;;;;;10388924;27;20212;-66
2020/12/08 23:33:09;;;;;;;58.87;28.77;;;;;;;;;;10375058;27;20223;-66
2020/12/08 23:38:11;;;;;;;66.63;29.00;;;;;;;;;;10384077;27;20224;-66
2020/12/08 23:43:13;;;;;;;58.50;28.37;;;;;;;;;;10383892;27;20987;-65
2020/12/08 23:48:15;;;;;;;56.37;26.93;;;;;;;;;;10385465;28;20660;-66
2020/12/08 23:53:17;;;;;;;60.27;26.97;;;;;;;;;;10382260;27;20223;-66
2020/12/08 23:58:19;;;;;;;56.13;26.57;;;;;;;;;;10389676;27;20703;-65
